createdAt,value
2022-08-11T00:02:05.337Z,64.78
2022-08-11T00:04:58.956Z,65.40
2022-08-11T00:07:45.184Z,66.16
2022-08-11T00:10:36.030Z,69.51
2022-08-11T00:13:10.341Z,71.00
2022-08-11T00:15:48.706Z,70.95
2022-08-11T00:18:19.060Z,69.91
2022-08-11T00:20:53.935Z,70.33
2022-08-11T00:23:22.999Z,70.62
2022-08-11T00:25:53.326Z,70.82
2022-08-11T00:28:27.155Z,69.76
2022-08-11T00:30:58.397Z,70.79
2022-08-11T00:33:44.119Z,70.44
2022-08-11T00:36:28.861Z,71.39
2022-08-11T00:39:09.166Z,70.30
2022-08-11T00:42:03.949Z,70.42
2022-08-11T00:44:54.376Z,70.58
2022-08-11T00:47:38.844Z,70.81
2022-08-11T00:50:19.266Z,70.64
2022-08-11T00:53:17.489Z,69.95
2022-08-11T00:56:41.210Z,69.48
2022-08-11T00:59:36.072Z,70.00
2022-08-11T01:02:30.739Z,71.10
2022-08-11T01:05:35.410Z,69.64
2022-08-11T01:08:58.229Z,70.21
2022-08-11T01:12:00.992Z,69.54
2022-08-11T01:15:33.175Z,72.68
2022-08-11T01:18:39.105Z,70.33
2022-08-11T01:22:07.395Z,69.05
2022-08-11T01:25:33.342Z,68.82
2022-08-11T01:29:31.060Z,69.28
2022-08-11T01:32:38.417Z,70.09
2022-08-11T01:35:41.702Z,72.47
2022-08-11T01:39:07.446Z,70.86
2022-08-11T01:42:23.444Z,70.17
2022-08-11T01:45:18.022Z,70.34
2022-08-11T01:48:00.902Z,70.59
2022-08-11T01:51:19.204Z,71.00
2022-08-11T01:53:56.079Z,72.69
2022-08-11T01:56:59.249Z,75.33
2022-08-11T01:59:35.866Z,73.59
2022-08-11T02:02:48.678Z,75.54
2022-08-11T02:05:32.510Z,75.51
2022-08-11T02:08:18.909Z,75.61
2022-08-11T02:11:16.475Z,75.34
2022-08-11T02:13:55.238Z,74.66
2022-08-11T02:16:46.693Z,76.85
2022-08-11T02:19:52.019Z,76.94
2022-08-11T02:22:51.487Z,77.35
2022-08-11T02:25:31.668Z,75.90
2022-08-11T02:28:11.806Z,75.30
2022-08-11T02:32:14.710Z,74.61
2022-08-11T02:34:16.022Z,74.26
2022-08-11T02:37:05.207Z,74.49
2022-08-11T02:39:49.207Z,75.14
2022-08-11T02:42:32.869Z,76.02
2022-08-11T02:45:32.404Z,78.53
2022-08-11T02:48:26.208Z,76.98
2022-08-11T02:51:14.128Z,76.00
2022-08-11T02:54:08.210Z,75.29
2022-08-11T02:56:52.113Z,74.87
2022-08-11T02:59:53.971Z,75.17
2022-08-11T03:02:55.190Z,75.30
2022-08-11T03:05:32.920Z,75.18
2022-08-11T03:08:32.086Z,75.32
2022-08-11T03:11:28.969Z,75.27
2022-08-11T03:14:34.378Z,75.72
2022-08-11T03:17:23.315Z,76.67
2022-08-11T03:20:04.085Z,76.03
2022-08-11T03:22:46.990Z,75.53
2022-08-11T03:25:31.916Z,75.23
2022-08-11T03:28:13.274Z,75.50
2022-08-11T03:30:54.998Z,75.45
2022-08-11T03:33:45.694Z,75.34
2022-08-11T03:37:15.001Z,75.40
2022-08-11T03:39:58.740Z,75.50
2022-08-11T03:42:34.017Z,75.49
2022-08-11T03:45:20.608Z,75.66
2022-08-11T03:48:07.058Z,77.07
2022-08-11T03:50:56.141Z,76.27
2022-08-11T03:53:50.284Z,76.15
2022-08-11T03:57:04.341Z,76.19
2022-08-11T04:00:15.416Z,76.13
2022-08-11T04:03:18.807Z,76.35
2022-08-11T04:06:21.653Z,76.36
2022-08-11T04:09:41.123Z,76.40
2022-08-11T04:12:56.109Z,75.95
2022-08-11T04:16:24.534Z,76.17
2022-08-11T04:19:38.041Z,76.00
2022-08-11T04:22:39.321Z,75.75
2022-08-11T04:25:57.674Z,75.80
2022-08-11T04:28:51.052Z,75.62
2022-08-11T04:31:50.690Z,75.57
2022-08-11T04:34:50.597Z,75.60
2022-08-11T04:37:53.280Z,75.52
2022-08-11T04:41:26.871Z,75.80
2022-08-11T04:45:04.419Z,75.66
2022-08-11T04:48:10.246Z,75.14
2022-08-11T04:51:17.786Z,74.91
2022-08-11T04:54:17.102Z,74.73
2022-08-11T04:57:07.453Z,74.53
2022-08-11T05:00:26.183Z,74.80
2022-08-11T05:03:30.124Z,74.32
2022-08-11T05:06:41.884Z,73.82
2022-08-11T05:09:31.975Z,73.53
2022-08-11T05:12:33.023Z,73.67
2022-08-11T05:15:21.142Z,73.22
2022-08-11T05:18:20.963Z,72.50
2022-08-11T05:21:11.236Z,71.97
2022-08-11T05:24:03.958Z,71.28
2022-08-11T05:27:03.489Z,70.90
2022-08-11T05:30:00.649Z,70.38
2022-08-11T05:32:59.321Z,69.53
2022-08-11T05:36:01.778Z,69.50
2022-08-11T05:38:52.701Z,68.37
2022-08-11T05:41:40.714Z,68.32
2022-08-11T05:44:29.964Z,68.10
2022-08-11T05:47:16.415Z,68.27
2022-08-11T05:50:09.223Z,67.90
2022-08-11T05:53:08.887Z,67.59
2022-08-11T05:56:03.261Z,67.53
2022-08-11T05:58:43.302Z,67.40
2022-08-11T06:01:14.118Z,67.25
2022-08-11T06:04:04.089Z,67.00
2022-08-11T06:06:34.462Z,66.79
2022-08-11T06:09:04.442Z,66.57
2022-08-11T06:11:45.129Z,66.42
2022-08-11T06:14:16.536Z,66.13
2022-08-11T06:17:00.173Z,65.74
2022-08-11T06:19:37.738Z,65.49
2022-08-11T06:22:12.128Z,65.26
2022-08-11T06:24:58.131Z,65.05
2022-08-11T06:27:27.851Z,64.90
2022-08-11T06:29:57.310Z,64.70
2022-08-11T06:32:29.141Z,63.80
2022-08-11T06:35:13.711Z,63.82
2022-08-11T06:38:02.509Z,63.63
2022-08-11T06:40:39.581Z,63.32
2022-08-11T06:43:22.383Z,63.24
2022-08-11T06:46:03.251Z,62.53
2022-08-11T06:48:36.470Z,61.90
2022-08-11T06:51:16.685Z,61.73
2022-08-11T06:53:59.169Z,61.16
2022-08-11T06:57:12.526Z,61.05
2022-08-11T07:00:01.484Z,61.00
2022-08-11T07:02:34.914Z,60.89
2022-08-11T07:05:09.328Z,60.36
2022-08-11T07:08:54.573Z,60.16
2022-08-11T07:12:10.840Z,59.96
2022-08-11T07:15:09.766Z,59.31
2022-08-11T07:17:49.366Z,59.06
2022-08-11T07:20:37.202Z,58.62
2022-08-11T07:23:28.618Z,57.71
2022-08-11T07:26:21.721Z,55.73
2022-08-11T07:29:00.300Z,54.51
2022-08-11T07:31:37.995Z,54.22
2022-08-11T07:34:21.961Z,54.02
2022-08-11T07:36:53.558Z,53.36
2022-08-11T07:39:24.539Z,53.66
2022-08-11T07:41:57.117Z,53.26
2022-08-11T07:44:34.849Z,53.46
2022-08-11T07:47:22.403Z,52.66
2022-08-11T07:50:11.805Z,52.47
2022-08-11T07:52:43.243Z,51.92
2022-08-11T07:55:22.220Z,51.66
2022-08-11T07:58:34.094Z,51.75
2022-08-11T08:01:39.148Z,51.37
2022-08-11T08:04:26.902Z,50.97
2022-08-11T08:07:14.568Z,49.46
2022-08-11T08:10:03.017Z,49.50
2022-08-11T08:12:50.471Z,49.16
2022-08-11T08:15:38.929Z,48.99
2022-08-11T08:18:26.472Z,48.79
2022-08-11T08:21:12.107Z,47.97
2022-08-11T08:23:54.058Z,44.06
2022-08-11T08:26:43.241Z,43.57
2022-08-11T08:29:39.257Z,39.25
2022-08-11T08:32:11.191Z,39.56
2022-08-11T08:34:46.757Z,40.40
2022-08-11T08:37:46.891Z,38.72
2022-08-11T08:40:05.436Z,39.12
2022-08-11T08:42:45.250Z,38.61
2022-08-11T08:45:18.555Z,39.60
2022-08-11T08:47:56.034Z,38.73
2022-08-11T08:50:50.419Z,39.44
2022-08-11T08:53:24.625Z,39.81
2022-08-11T08:55:56.891Z,39.62
2022-08-11T08:58:26.106Z,36.57
2022-08-11T09:01:01.050Z,36.88
2022-08-11T09:04:02.949Z,37.75
2022-08-11T09:06:33.051Z,37.98
2022-08-11T09:09:04.017Z,36.59
2022-08-11T09:11:50.556Z,35.80
2022-08-11T09:14:20.475Z,35.50
2022-08-11T09:16:50.473Z,35.97
2022-08-11T09:19:22.304Z,35.25
2022-08-11T09:22:09.618Z,34.91
2022-08-11T09:25:00.972Z,35.45
2022-08-11T09:27:29.770Z,35.52
2022-08-11T09:29:59.899Z,34.46
2022-08-11T09:32:31.506Z,35.30
2022-08-11T09:35:04.743Z,33.63
2022-08-11T09:37:58.317Z,33.67
2022-08-11T09:40:33.395Z,33.11
2022-08-11T09:43:24.524Z,32.71
2022-08-11T09:45:56.964Z,33.36
2022-08-11T09:48:31.880Z,32.97
2022-08-11T09:51:02.599Z,33.17
2022-08-11T09:53:40.961Z,33.17
2022-08-11T09:56:38.598Z,33.80
2022-08-11T09:59:07.832Z,32.27
2022-08-11T10:01:55.549Z,31.15
2022-08-11T10:04:35.527Z,31.96
2022-08-11T10:07:06.889Z,32.59
2022-08-11T10:09:48.992Z,32.39
2022-08-11T10:12:24.515Z,32.50
2022-08-11T10:15:18.593Z,31.33
2022-08-11T10:18:08.139Z,31.33
2022-08-11T10:20:39.030Z,31.55
2022-08-11T10:23:27.188Z,32.04
2022-08-11T10:26:15.355Z,30.16
2022-08-11T10:29:11.657Z,30.38
2022-08-11T10:31:59.343Z,29.63
2022-08-11T10:34:33.206Z,30.58
2022-08-11T10:37:03.661Z,29.78
2022-08-11T10:39:33.064Z,29.20
2022-08-11T10:42:35.428Z,29.29
2022-08-11T10:45:26.775Z,29.52
2022-08-11T10:47:59.657Z,29.96
2022-08-11T10:50:49.625Z,29.98
2022-08-11T10:53:38.017Z,29.40
2022-08-11T10:56:25.720Z,28.98
2022-08-11T10:59:09.810Z,28.31
2022-08-11T11:01:42.642Z,27.75
2022-08-11T11:04:17.357Z,27.06
2022-08-11T11:06:55.397Z,27.71
2022-08-11T11:09:32.454Z,28.13
2022-08-11T11:12:30.278Z,27.36
2022-08-11T11:15:22.593Z,26.52
2022-08-11T11:18:01.481Z,27.20
2022-08-11T11:20:38.690Z,27.27
2022-08-11T11:23:19.995Z,26.59
2022-08-11T11:26:27.602Z,26.42
2022-08-11T11:29:37.930Z,27.01
2022-08-11T11:32:31.292Z,27.19
2022-08-11T11:35:27.953Z,27.33
2022-08-11T11:38:05.688Z,27.62
2022-08-11T11:40:42.877Z,27.79
2022-08-11T11:43:12.430Z,27.85
2022-08-11T11:45:43.273Z,28.00
2022-08-11T11:48:21.393Z,27.54
2022-08-11T11:50:53.703Z,26.68
2022-08-11T11:53:28.393Z,26.76
2022-08-11T11:56:01.665Z,26.99
2022-08-11T11:58:48.150Z,27.21
2022-08-11T12:01:17.174Z,27.57
2022-08-11T12:03:54.822Z,27.89
2022-08-11T12:06:28.585Z,28.00
2022-08-11T12:09:05.074Z,28.27
2022-08-11T12:11:51.660Z,28.47
2022-08-11T12:14:25.793Z,28.22
2022-08-11T12:17:05.374Z,27.40
2022-08-11T12:19:36.145Z,27.83
2022-08-11T12:22:22.978Z,26.88
2022-08-11T12:25:11.734Z,26.49
2022-08-11T12:27:43.218Z,26.86
2022-08-11T12:30:21.391Z,27.12
2022-08-11T12:32:59.436Z,27.07
2022-08-11T12:35:31.832Z,27.06
2022-08-11T12:38:10.064Z,27.21
2022-08-11T12:41:17.692Z,26.66
2022-08-11T12:44:08.489Z,27.41
2022-08-11T12:46:39.809Z,27.68
2022-08-11T12:49:32.026Z,27.15
2022-08-11T12:52:15.545Z,26.75
2022-08-11T12:55:00.612Z,26.64
2022-08-11T12:57:51.546Z,26.44
2022-08-11T13:00:39.108Z,26.15
2022-08-11T13:03:29.779Z,26.15
2022-08-11T13:06:05.817Z,26.23
2022-08-11T13:08:39.315Z,25.46
2022-08-11T13:11:56.800Z,25.82
2022-08-11T13:14:22.958Z,26.18
2022-08-11T13:17:16.009Z,25.36
2022-08-11T13:19:49.890Z,25.14
2022-08-11T13:22:32.532Z,25.31
2022-08-11T13:25:17.153Z,25.49
2022-08-11T13:27:57.283Z,25.32
2022-08-11T13:30:56.806Z,25.84
2022-08-11T13:33:47.582Z,25.04
2022-08-11T13:36:27.310Z,24.58
2022-08-11T13:39:01.410Z,25.40
2022-08-11T13:41:42.073Z,24.83
2022-08-11T13:44:21.587Z,24.59
2022-08-11T13:47:03.979Z,24.79
2022-08-11T13:49:35.153Z,25.12
2022-08-11T13:52:09.625Z,25.06
2022-08-11T13:54:43.660Z,25.21
2022-08-11T13:58:07.656Z,24.68
2022-08-11T14:00:27.636Z,24.70
2022-08-11T14:03:18.965Z,25.21
2022-08-11T14:05:52.081Z,25.75
2022-08-11T14:08:38.152Z,25.85
2022-08-11T14:12:21.965Z,25.17
2022-08-11T14:14:29.025Z,25.48
2022-08-11T14:17:09.327Z,25.77
2022-08-11T14:19:57.528Z,25.48
2022-08-11T14:22:29.380Z,25.46
2022-08-11T14:25:08.483Z,25.18
2022-08-11T14:28:33.773Z,25.42
2022-08-11T14:31:01.778Z,24.96
2022-08-11T14:33:58.633Z,25.49
2022-08-11T14:36:35.235Z,25.64
2022-08-11T14:39:13.188Z,25.80
2022-08-11T14:42:11.593Z,25.74
2022-08-11T14:45:03.859Z,25.50
2022-08-11T14:47:39.254Z,25.41
2022-08-11T14:50:18.010Z,25.80
2022-08-11T14:53:00.629Z,26.12
2022-08-11T14:55:48.702Z,25.46
2022-08-11T14:58:27.895Z,25.32
2022-08-11T15:01:03.412Z,25.34
2022-08-11T15:03:37.711Z,25.44
2022-08-11T15:06:07.341Z,25.47
2022-08-11T15:08:56.528Z,25.20
2022-08-11T15:11:49.475Z,25.52
2022-08-11T15:14:42.408Z,25.76
2022-08-11T15:17:13.038Z,25.38
2022-08-11T15:19:59.747Z,25.25
2022-08-11T15:22:48.608Z,25.25
2022-08-11T15:25:28.842Z,25.38
2022-08-11T15:28:21.900Z,25.66
2022-08-11T15:31:14.030Z,25.55
2022-08-11T15:34:14.115Z,26.02
2022-08-11T15:37:17.652Z,26.08
2022-08-11T15:40:08.313Z,26.26
2022-08-11T15:43:28.421Z,26.70
2022-08-11T15:46:11.147Z,26.65
2022-08-11T15:48:48.518Z,26.04
2022-08-11T15:51:26.519Z,26.13
2022-08-11T15:54:09.056Z,26.34
2022-08-11T15:56:45.430Z,26.69
2022-08-11T15:59:46.663Z,26.37
2022-08-11T16:02:35.555Z,26.40
2022-08-11T16:05:11.106Z,26.53
2022-08-11T16:07:42.595Z,26.82
2022-08-11T16:10:21.771Z,27.08
2022-08-11T16:13:22.559Z,26.60
2022-08-11T16:16:08.571Z,26.69
2022-08-11T16:18:56.159Z,26.63
2022-08-11T16:21:36.148Z,26.48
2022-08-11T16:26:30.590Z,26.80
2022-08-11T16:27:14.272Z,26.66
2022-08-11T16:29:47.959Z,26.85
2022-08-11T16:32:27.654Z,27.16
2022-08-11T16:35:19.057Z,27.59
2022-08-11T16:38:07.464Z,27.62
2022-08-11T16:40:42.300Z,27.89
2022-08-11T16:43:34.237Z,27.55
2022-08-11T16:46:24.473Z,27.92
2022-08-11T16:48:59.014Z,28.12
2022-08-11T16:51:27.981Z,28.00
2022-08-11T16:54:04.740Z,27.70
2022-08-11T16:56:41.418Z,27.44
2022-08-11T16:59:18.960Z,27.45
2022-08-11T17:01:57.289Z,27.62
2022-08-11T17:05:00.056Z,27.52
2022-08-11T17:07:51.541Z,27.20
2022-08-11T17:10:53.739Z,27.10
2022-08-11T17:13:38.570Z,26.69
2022-08-11T17:16:13.908Z,27.13
2022-08-11T17:18:51.272Z,27.20
2022-08-11T17:21:27.136Z,26.85
2022-08-11T17:23:59.091Z,27.11
2022-08-11T17:26:47.337Z,27.04
2022-08-11T17:29:18.482Z,27.47
2022-08-11T17:32:10.072Z,27.68
2022-08-11T17:34:59.146Z,27.52
2022-08-11T17:37:31.178Z,27.74
2022-08-11T17:40:06.058Z,26.93
2022-08-11T17:42:54.463Z,26.85
2022-08-11T17:45:42.627Z,27.51
2022-08-11T17:48:29.392Z,27.86
2022-08-11T17:51:01.077Z,27.69
2022-08-11T17:54:10.194Z,28.23
2022-08-11T17:57:02.763Z,28.39
2022-08-11T17:59:49.934Z,28.84
2022-08-11T18:02:40.475Z,29.11
2022-08-11T18:05:13.425Z,29.62
2022-08-11T18:08:02.369Z,29.91
2022-08-11T18:10:51.322Z,30.19
2022-08-11T18:13:39.721Z,30.08
2022-08-11T18:16:26.180Z,30.63
2022-08-11T18:19:12.850Z,31.27
2022-08-11T18:22:14.362Z,31.14
2022-08-11T18:25:08.905Z,31.66
2022-08-11T18:27:57.505Z,31.59
2022-08-11T18:30:45.469Z,32.19
2022-08-11T18:33:56.882Z,32.77
2022-08-11T18:36:42.480Z,32.85
2022-08-11T18:39:32.635Z,33.06
2022-08-11T18:42:29.298Z,33.44
2022-08-11T18:45:20.449Z,33.42
2022-08-11T18:48:11.520Z,33.71
2022-08-11T18:51:31.152Z,34.25
2022-08-11T18:54:13.139Z,34.96
2022-08-11T18:57:04.227Z,35.36
2022-08-11T19:00:00.621Z,35.65
2022-08-11T19:02:50.126Z,36.16
2022-08-11T19:06:33.693Z,36.66
2022-08-11T19:08:48.779Z,36.72
2022-08-11T19:11:38.188Z,37.13
2022-08-11T19:14:31.754Z,37.28
2022-08-11T19:17:43.676Z,37.43
2022-08-11T19:20:31.906Z,37.69
2022-08-11T19:23:20.393Z,38.43
2022-08-11T19:26:08.222Z,38.55
2022-08-11T19:28:58.288Z,38.79
2022-08-11T19:31:46.868Z,38.77
2022-08-11T19:34:37.616Z,38.91
2022-08-11T19:37:25.939Z,39.14
2022-08-11T19:40:13.880Z,39.72
2022-08-11T19:43:02.011Z,39.88
2022-08-11T19:45:52.244Z,39.60
2022-08-11T19:48:43.402Z,39.67
2022-08-11T19:51:31.298Z,40.19
2022-08-11T19:54:18.655Z,40.49
2022-08-11T19:57:05.860Z,40.89
2022-08-11T19:59:55.416Z,41.13
2022-08-11T20:02:44.076Z,41.58
2022-08-11T20:05:31.547Z,41.21
2022-08-11T20:08:20.182Z,41.33
2022-08-11T20:11:10.735Z,41.53
2022-08-11T20:13:59.831Z,41.70
2022-08-11T20:16:46.791Z,42.35
2022-08-11T20:19:56.645Z,42.14
2022-08-11T20:22:45.532Z,42.08
2022-08-11T20:25:33.251Z,42.33
2022-08-11T20:28:21.219Z,42.38
2022-08-11T20:31:09.407Z,42.78
2022-08-11T20:33:57.164Z,42.80
2022-08-11T20:36:45.077Z,42.53
2022-08-11T20:39:35.939Z,42.26
2022-08-11T20:42:28.443Z,42.21
2022-08-11T20:45:23.644Z,42.06
2022-08-11T20:48:15.329Z,42.20
2022-08-11T20:51:06.455Z,42.35
2022-08-11T20:53:59.714Z,42.90
2022-08-11T20:56:54.838Z,42.87
2022-08-11T20:59:49.548Z,43.51
2022-08-11T21:02:45.275Z,43.37
2022-08-11T21:08:48.314Z,43.02
2022-08-11T21:11:35.623Z,42.90
2022-08-11T21:14:26.448Z,43.15
2022-08-11T21:17:26.919Z,43.38
2022-08-11T21:20:21.040Z,43.79
2022-08-11T21:23:14.936Z,43.13
2022-08-11T21:26:15.689Z,43.33
2022-08-11T21:29:02.754Z,43.26
2022-08-11T21:31:52.819Z,43.23
2022-08-11T21:34:40.783Z,43.37
2022-08-11T21:37:28.380Z,43.20
2022-08-11T21:40:17.467Z,43.46
2022-08-11T21:43:07.351Z,43.37
2022-08-11T21:45:57.021Z,43.31
2022-08-11T21:48:46.658Z,43.54
2022-08-11T21:51:33.162Z,43.91
2022-08-11T21:54:21.409Z,43.99
2022-08-11T21:57:09.109Z,43.91
2022-08-11T22:00:02.490Z,43.87
2022-08-11T22:02:57.804Z,44.27
2022-08-11T22:05:47.254Z,43.95
2022-08-11T22:08:34.943Z,44.52
2022-08-11T22:11:31.813Z,44.68
2022-08-11T22:14:19.285Z,44.60
2022-08-11T22:17:05.872Z,44.77
2022-08-11T22:19:55.166Z,44.93
2022-08-11T22:22:51.873Z,45.32
2022-08-11T22:25:44.234Z,45.36
2022-08-11T22:28:38.452Z,45.71
2022-08-11T22:31:26.801Z,46.04
2022-08-11T22:34:13.850Z,46.17
2022-08-11T22:37:01.520Z,46.28
2022-08-11T22:40:00.740Z,46.23
2022-08-11T22:42:54.288Z,47.66
2022-08-11T22:45:41.233Z,46.82
2022-08-11T22:48:38.925Z,46.76
2022-08-11T22:51:28.347Z,46.99
2022-08-11T22:54:16.077Z,47.19
2022-08-11T22:57:06.779Z,47.83
2022-08-11T22:59:55.399Z,47.52
2022-08-11T23:02:42.076Z,47.94
2022-08-11T23:05:28.969Z,47.74
2022-08-11T23:08:17.161Z,47.61
2022-08-11T23:11:05.330Z,47.69
2022-08-11T23:13:53.472Z,47.92
2022-08-11T23:16:41.004Z,47.91
2022-08-11T23:20:09.032Z,48.85
2022-08-11T23:22:49.420Z,49.23
2022-08-11T23:25:36.852Z,48.93
2022-08-11T23:28:27.126Z,48.90
2022-08-11T23:31:17.239Z,48.87
2022-08-11T23:34:08.277Z,49.27
2022-08-11T23:37:19.210Z,49.49
2022-08-11T23:40:05.356Z,49.68
2022-08-11T23:42:56.716Z,49.62
2022-08-11T23:45:43.830Z,50.64
2022-08-11T23:48:34.480Z,50.53
2022-08-11T23:51:21.411Z,51.02
2022-08-11T23:54:08.724Z,50.92
2022-08-11T23:56:58.221Z,51.68
2022-08-11T23:59:44.630Z,52.76
